createdAt,value
2022-12-31T00:00:21.596Z,16.53
2022-12-31T00:02:48.735Z,16.40
2022-12-31T00:05:15.831Z,16.49
2022-12-31T00:10:09.377Z,16.53
2022-12-31T00:12:36.743Z,16.48
2022-12-31T00:15:04.032Z,16.59
2022-12-31T00:17:31.141Z,16.51
2022-12-31T00:19:58.057Z,16.58
2022-12-31T00:22:25.177Z,16.56
2022-12-31T00:24:52.148Z,16.67
2022-12-31T00:27:19.448Z,16.62
2022-12-31T00:29:46.628Z,16.59
2022-12-31T00:32:13.926Z,16.71
2022-12-31T00:34:40.900Z,16.47
2022-12-31T00:37:08.209Z,16.58
2022-12-31T00:39:35.165Z,16.65
2022-12-31T00:42:02.715Z,16.58
2022-12-31T00:44:29.738Z,16.59
2022-12-31T00:46:56.711Z,16.66
2022-12-31T00:49:23.657Z,16.67
2022-12-31T00:51:50.952Z,16.77
2022-12-31T00:54:17.896Z,16.68
2022-12-31T00:56:45.158Z,16.89
2022-12-31T00:59:12.091Z,16.90
2022-12-31T01:01:40.816Z,16.81
2022-12-31T01:04:15.196Z,16.75
2022-12-31T01:06:43.920Z,16.75
2022-12-31T01:09:12.709Z,16.86
2022-12-31T01:11:39.868Z,16.74
2022-12-31T01:14:14.626Z,16.70
2022-12-31T01:16:51.172Z,16.86
2022-12-31T01:19:22.334Z,16.53
2022-12-31T01:21:51.419Z,16.65
2022-12-31T01:24:19.398Z,16.74
2022-12-31T01:26:47.034Z,16.66
2022-12-31T01:29:14.796Z,16.64
2022-12-31T01:31:42.454Z,16.55
2022-12-31T01:34:09.713Z,16.54
2022-12-31T01:36:38.420Z,16.65
2022-12-31T01:39:08.538Z,16.56
2022-12-31T01:41:43.713Z,16.39
2022-12-31T01:44:13.567Z,16.32
2022-12-31T01:46:58.494Z,16.38
2022-12-31T01:49:44.689Z,16.37
2022-12-31T01:52:38.602Z,16.25
2022-12-31T01:55:14.930Z,16.28
2022-12-31T01:57:45.747Z,16.33
2022-12-31T02:00:13.344Z,16.26
2022-12-31T02:02:40.447Z,16.19
2022-12-31T02:05:26.091Z,16.22
2022-12-31T02:07:54.749Z,16.19
2022-12-31T02:10:21.699Z,16.14
2022-12-31T02:12:50.545Z,16.20
2022-12-31T02:15:22.925Z,16.00
2022-12-31T02:18:10.207Z,15.98
2022-12-31T02:21:09.435Z,15.98
2022-12-31T02:23:53.344Z,16.01
2022-12-31T02:26:54.169Z,15.95
2022-12-31T02:29:35.969Z,16.35
2022-12-31T02:32:07.767Z,15.88
2022-12-31T02:34:40.644Z,15.62
2022-12-31T02:37:12.371Z,15.51
2022-12-31T02:39:42.123Z,15.70
2022-12-31T02:42:11.594Z,15.71
2022-12-31T02:44:41.612Z,15.73
2022-12-31T02:47:08.694Z,15.60
2022-12-31T02:50:25.464Z,15.95
2022-12-31T02:53:29.535Z,15.77
2022-12-31T02:56:21.481Z,15.86
2022-12-31T02:59:33.341Z,16.02
2022-12-31T03:02:15.316Z,16.23
2022-12-31T03:04:56.049Z,15.97
2022-12-31T03:07:23.960Z,16.16
2022-12-31T03:09:51.923Z,16.10
2022-12-31T03:12:43.454Z,15.97
2022-12-31T03:15:21.501Z,15.97
2022-12-31T03:18:02.804Z,15.73
2022-12-31T03:21:02.622Z,15.79
2022-12-31T03:23:41.702Z,15.95
2022-12-31T03:26:12.984Z,16.24
2022-12-31T03:28:47.732Z,16.28
2022-12-31T03:31:16.479Z,16.26
2022-12-31T03:33:43.549Z,15.92
2022-12-31T03:36:15.354Z,15.96
2022-12-31T03:38:42.889Z,15.92
2022-12-31T03:41:11.133Z,16.07
2022-12-31T03:43:38.478Z,16.16
2022-12-31T03:46:05.639Z,16.42
2022-12-31T03:48:32.912Z,16.42
2022-12-31T03:50:59.929Z,16.39
2022-12-31T03:53:27.540Z,16.34
2022-12-31T03:55:55.020Z,16.34
2022-12-31T03:58:22.945Z,16.40
2022-12-31T04:00:50.562Z,16.55
2022-12-31T04:03:17.962Z,16.61
2022-12-31T04:05:45.003Z,16.58
2022-12-31T04:08:11.979Z,16.62
2022-12-31T04:10:39.193Z,16.57
2022-12-31T04:13:06.124Z,16.74
2022-12-31T04:15:33.376Z,16.63
2022-12-31T04:18:00.323Z,16.47
2022-12-31T04:20:27.596Z,16.46
2022-12-31T04:22:54.588Z,16.38
2022-12-31T04:25:21.707Z,16.43
2022-12-31T04:27:48.636Z,16.43
2022-12-31T04:30:15.989Z,16.16
2022-12-31T04:32:43.191Z,16.21
2022-12-31T04:35:12.441Z,16.37
2022-12-31T04:37:39.471Z,16.49
2022-12-31T04:40:08.767Z,16.31
2022-12-31T04:42:36.559Z,16.36
2022-12-31T04:45:05.045Z,16.25
2022-12-31T04:47:32.016Z,16.27
2022-12-31T04:49:59.226Z,16.21
2022-12-31T04:52:26.240Z,15.99
2022-12-31T04:54:53.430Z,16.06
2022-12-31T04:57:20.390Z,15.66
2022-12-31T04:59:47.830Z,15.75
2022-12-31T05:02:15.106Z,15.61
2022-12-31T05:04:43.864Z,15.69
2022-12-31T05:07:10.801Z,15.81
2022-12-31T05:09:37.901Z,15.55
2022-12-31T05:12:05.265Z,15.43
2022-12-31T05:14:32.504Z,15.37
2022-12-31T05:16:59.510Z,15.26
2022-12-31T05:19:26.776Z,15.26
2022-12-31T05:22:19.626Z,15.31
2022-12-31T05:24:46.853Z,15.22
2022-12-31T05:27:15.030Z,15.13
2022-12-31T05:29:41.981Z,15.31
2022-12-31T05:32:09.148Z,15.12
2022-12-31T05:34:36.111Z,15.07
2022-12-31T05:37:03.406Z,15.12
2022-12-31T05:39:30.382Z,15.47
2022-12-31T05:41:57.630Z,15.25
2022-12-31T05:44:24.572Z,15.14
2022-12-31T05:46:51.615Z,15.51
2022-12-31T05:49:18.866Z,15.34
2022-12-31T05:51:46.548Z,15.35
2022-12-31T05:54:13.682Z,15.30
2022-12-31T05:56:40.639Z,15.25
2022-12-31T05:59:07.774Z,15.22
2022-12-31T06:01:34.926Z,15.66
2022-12-31T06:04:02.071Z,15.62
2022-12-31T06:06:29.224Z,15.67
2022-12-31T06:08:56.301Z,15.60
2022-12-31T06:11:23.593Z,15.92
2022-12-31T06:13:50.783Z,15.84
2022-12-31T06:16:17.865Z,16.27
2022-12-31T06:18:50.367Z,16.38
2022-12-31T06:21:18.929Z,16.32
2022-12-31T06:23:46.416Z,15.98
2022-12-31T06:26:13.580Z,16.01
2022-12-31T06:28:41.168Z,15.83
2022-12-31T06:31:11.917Z,15.77
2022-12-31T06:33:39.545Z,15.79
2022-12-31T06:36:11.213Z,15.51
2022-12-31T06:38:40.900Z,15.51
2022-12-31T06:41:11.028Z,15.63
2022-12-31T06:43:40.778Z,15.71
2022-12-31T06:46:11.450Z,15.94
2022-12-31T06:48:39.569Z,16.12
2022-12-31T06:51:16.771Z,16.27
2022-12-31T06:53:47.242Z,16.24
2022-12-31T06:56:20.626Z,16.17
2022-12-31T06:58:48.925Z,16.23
2022-12-31T07:01:44.449Z,16.24
2022-12-31T07:04:49.136Z,16.31
2022-12-31T07:07:53.409Z,16.42
2022-12-31T07:11:00.244Z,16.41
2022-12-31T07:13:35.904Z,16.20
2022-12-31T07:16:55.468Z,16.26
2022-12-31T07:19:37.327Z,16.37
2022-12-31T07:22:05.566Z,16.35
2022-12-31T07:24:32.932Z,16.40
2022-12-31T07:27:59.261Z,16.47
2022-12-31T07:30:57.705Z,16.64
2022-12-31T07:33:46.754Z,16.60
2022-12-31T07:36:42.659Z,16.61
2022-12-31T07:39:22.134Z,16.67
2022-12-31T07:42:06.946Z,16.64
2022-12-31T07:45:03.439Z,16.73
2022-12-31T07:47:30.949Z,16.83
2022-12-31T07:49:58.668Z,17.07
2022-12-31T07:52:26.236Z,17.05
2022-12-31T07:54:53.436Z,16.91
2022-12-31T07:57:23.513Z,17.08
2022-12-31T08:00:13.099Z,17.05
2022-12-31T08:03:01.821Z,17.18
2022-12-31T08:05:58.712Z,17.27
2022-12-31T08:09:03.945Z,17.53
2022-12-31T08:11:57.716Z,17.57
2022-12-31T08:14:26.916Z,17.70
2022-12-31T08:16:55.081Z,17.80
2022-12-31T08:19:32.229Z,17.89
2022-12-31T08:22:24.124Z,17.81
2022-12-31T08:25:20.919Z,18.03
2022-12-31T08:27:54.003Z,17.90
2022-12-31T08:30:22.060Z,18.07
2022-12-31T08:33:28.486Z,18.15
2022-12-31T08:36:29.463Z,18.17
2022-12-31T08:39:33.960Z,18.07
2022-12-31T08:42:09.438Z,18.21
2022-12-31T08:44:52.996Z,18.50
2022-12-31T08:47:59.512Z,18.56
2022-12-31T08:50:27.989Z,18.46
2022-12-31T08:52:55.460Z,18.61
2022-12-31T08:55:24.548Z,18.76
2022-12-31T08:58:38.585Z,18.69
2022-12-31T09:01:07.792Z,18.86
2022-12-31T09:03:57.830Z,18.80
2022-12-31T09:06:42.633Z,19.19
2022-12-31T09:09:54.617Z,18.92
2022-12-31T09:12:32.537Z,19.00
2022-12-31T09:15:05.532Z,18.98
2022-12-31T09:18:01.489Z,19.51
2022-12-31T09:20:42.862Z,18.91
2022-12-31T09:23:12.531Z,19.14
2022-12-31T09:25:55.922Z,19.06
2022-12-31T09:28:59.281Z,18.86
2022-12-31T09:31:48.774Z,18.89
2022-12-31T09:34:31.662Z,18.83
2022-12-31T09:37:06.582Z,19.13
2022-12-31T09:39:46.248Z,19.01
2022-12-31T09:43:11.075Z,19.10
2022-12-31T09:46:22.542Z,18.94
2022-12-31T09:49:32.392Z,19.46
2022-12-31T09:52:11.419Z,19.42
2022-12-31T09:55:23.857Z,19.35
2022-12-31T09:58:06.915Z,19.40
2022-12-31T10:00:50.315Z,19.51
2022-12-31T10:03:29.355Z,19.55
2022-12-31T10:06:33.973Z,19.60
2022-12-31T10:09:27.572Z,19.47
2022-12-31T10:12:21.137Z,19.51
2022-12-31T10:15:38.000Z,19.69
2022-12-31T10:19:09.142Z,19.92
2022-12-31T10:22:09.315Z,19.94
2022-12-31T10:25:14.940Z,19.74
2022-12-31T10:28:00.424Z,19.94
2022-12-31T10:30:35.678Z,19.87
2022-12-31T10:33:25.497Z,19.91
2022-12-31T10:36:18.299Z,19.91
2022-12-31T10:39:24.204Z,19.90
2022-12-31T10:42:32.054Z,20.05
2022-12-31T10:45:33.672Z,19.96
2022-12-31T10:48:16.097Z,19.96
2022-12-31T10:51:09.983Z,20.03
2022-12-31T10:54:23.989Z,20.47
2022-12-31T10:57:12.578Z,20.57
2022-12-31T10:59:58.689Z,20.21
2022-12-31T11:02:40.622Z,20.44
2022-12-31T11:05:32.644Z,20.69
2022-12-31T11:08:05.385Z,20.58
2022-12-31T11:11:12.014Z,20.75
2022-12-31T11:14:19.999Z,20.55
2022-12-31T11:17:05.794Z,20.60
2022-12-31T11:20:03.999Z,20.73
2022-12-31T11:23:00.639Z,20.78
2022-12-31T11:26:08.540Z,20.56
2022-12-31T11:28:53.257Z,20.34
2022-12-31T11:31:42.621Z,20.66
2022-12-31T11:34:22.334Z,20.14
2022-12-31T11:37:22.184Z,20.24
2022-12-31T11:40:42.053Z,20.24
2022-12-31T11:44:09.903Z,20.18
2022-12-31T11:47:03.963Z,20.10
2022-12-31T11:49:46.737Z,20.12
2022-12-31T11:52:53.896Z,20.26
2022-12-31T11:56:00.221Z,20.28
2022-12-31T11:58:28.934Z,20.23
2022-12-31T12:01:18.523Z,20.33
2022-12-31T12:03:46.315Z,20.37
2022-12-31T12:06:18.256Z,20.05
2022-12-31T12:08:46.465Z,20.32
2022-12-31T12:11:28.734Z,20.35
2022-12-31T12:13:56.425Z,20.29
2022-12-31T12:16:25.853Z,20.41
2022-12-31T12:19:06.696Z,20.06
2022-12-31T12:21:34.710Z,20.23
2022-12-31T12:24:27.800Z,20.44
2022-12-31T12:26:57.369Z,20.45
2022-12-31T12:29:29.751Z,20.24
2022-12-31T12:32:02.778Z,20.18
2022-12-31T12:34:39.484Z,20.26
2022-12-31T12:37:35.337Z,20.06
2022-12-31T12:40:33.325Z,19.78
2022-12-31T12:43:02.709Z,19.80
2022-12-31T12:45:47.663Z,19.72
2022-12-31T12:48:29.759Z,19.81
2022-12-31T13:22:50.340Z,22.58
2022-12-31T13:32:46.625Z,22.16
2022-12-31T13:36:15.565Z,20.13
2022-12-31T13:39:47.027Z,22.19
2022-12-31T13:42:22.675Z,22.40
2022-12-31T13:45:02.910Z,22.22
2022-12-31T13:47:41.998Z,22.23
2022-12-31T13:50:26.097Z,22.35
2022-12-31T13:53:29.396Z,22.21
2022-12-31T13:56:04.004Z,22.38
2022-12-31T13:58:48.704Z,22.33
2022-12-31T14:01:34.438Z,22.24
2022-12-31T14:04:27.403Z,22.16
2022-12-31T14:07:12.629Z,22.63
2022-12-31T14:09:42.519Z,23.07
2022-12-31T14:12:27.770Z,22.86
2022-12-31T14:15:06.824Z,22.97
2022-12-31T14:17:57.847Z,22.94
2022-12-31T14:20:57.432Z,22.99
2022-12-31T14:23:54.691Z,22.93
2022-12-31T14:30:01.929Z,17.50
2022-12-31T14:32:37.953Z,17.49
2022-12-31T14:35:47.641Z,17.30
2022-12-31T14:38:51.532Z,17.57
2022-12-31T14:42:15.084Z,17.21
2022-12-31T14:45:30.093Z,16.90
2022-12-31T14:48:33.374Z,16.90
2022-12-31T14:51:03.268Z,16.82
2022-12-31T14:53:30.664Z,17.31
2022-12-31T14:56:04.614Z,17.05
2022-12-31T14:58:36.786Z,17.13
2022-12-31T15:01:29.108Z,17.02
2022-12-31T15:03:58.639Z,16.71
2022-12-31T15:06:41.225Z,16.54
2022-12-31T15:09:20.815Z,16.34
2022-12-31T15:12:47.146Z,16.20
2022-12-31T15:15:33.512Z,16.19
2022-12-31T15:18:46.681Z,15.96
2022-12-31T15:21:54.344Z,15.97
2022-12-31T15:24:27.594Z,15.73
2022-12-31T15:31:18.076Z,15.75
2022-12-31T15:36:25.942Z,15.83
2022-12-31T15:42:18.888Z,15.62
2022-12-31T15:47:31.825Z,15.60
2022-12-31T15:52:48.113Z,15.59
2022-12-31T15:57:51.221Z,15.84
2022-12-31T16:02:55.672Z,16.41
2022-12-31T16:08:00.157Z,16.20
2022-12-31T16:13:02.312Z,16.16
2022-12-31T16:18:18.948Z,16.02
2022-12-31T16:23:27.734Z,15.92
2022-12-31T16:28:32.837Z,16.00
2022-12-31T16:33:35.082Z,15.98
2022-12-31T16:38:38.323Z,16.18
2022-12-31T16:43:43.244Z,16.08
2022-12-31T16:48:48.838Z,16.16
2022-12-31T16:53:52.476Z,15.66
2022-12-31T16:59:06.070Z,15.46
2022-12-31T17:04:12.542Z,15.30
2022-12-31T17:09:33.718Z,15.28
2022-12-31T17:14:50.584Z,15.27
2022-12-31T17:20:00.330Z,14.92
2022-12-31T17:25:09.373Z,14.57
2022-12-31T17:30:32.902Z,14.66
2022-12-31T17:35:42.092Z,14.92
2022-12-31T17:40:51.348Z,14.89
2022-12-31T17:45:55.237Z,14.98
2022-12-31T17:51:00.742Z,14.51
2022-12-31T17:56:06.951Z,14.87
2022-12-31T18:01:10.402Z,14.92
2022-12-31T18:06:16.871Z,14.36
2022-12-31T18:11:23.484Z,14.45
2022-12-31T18:16:25.704Z,14.31
2022-12-31T18:21:34.506Z,14.09
2022-12-31T18:26:36.893Z,14.33
2022-12-31T18:31:39.706Z,14.13
2022-12-31T18:36:42.576Z,13.92
2022-12-31T18:41:49.577Z,13.79
2022-12-31T18:46:51.862Z,13.77
2022-12-31T18:51:57.270Z,13.53
2022-12-31T18:56:59.569Z,13.58
2022-12-31T19:02:01.834Z,13.48
2022-12-31T19:07:04.353Z,13.49
2022-12-31T19:12:07.155Z,12.95
2022-12-31T19:22:15.808Z,13.04
2022-12-31T19:27:18.087Z,12.85
2022-12-31T19:32:20.375Z,12.81
2022-12-31T19:37:22.466Z,12.69
2022-12-31T19:42:25.827Z,12.58
2022-12-31T19:47:28.420Z,12.81
2022-12-31T19:52:30.566Z,13.01
2022-12-31T19:57:32.875Z,12.94
2022-12-31T20:02:35.434Z,13.09
2022-12-31T20:07:37.978Z,12.98
2022-12-31T20:12:44.397Z,13.18
2022-12-31T20:17:46.947Z,13.39
2022-12-31T20:22:49.279Z,13.41
2022-12-31T20:27:55.913Z,13.55
2022-12-31T20:32:58.292Z,13.55
2022-12-31T20:38:00.480Z,13.40
2022-12-31T20:43:02.650Z,13.26
2022-12-31T20:48:05.217Z,13.37
2022-12-31T20:53:07.523Z,13.65
2022-12-31T20:58:09.637Z,13.39
2022-12-31T21:03:36.656Z,13.64
2022-12-31T21:08:35.149Z,13.10
2022-12-31T21:13:37.572Z,13.25
2022-12-31T21:18:39.860Z,13.67
2022-12-31T21:23:42.258Z,14.12
2022-12-31T21:28:44.636Z,14.32
2022-12-31T21:33:48.761Z,14.20
2022-12-31T21:38:51.122Z,14.67
2022-12-31T21:43:53.375Z,14.71
2022-12-31T21:49:00.677Z,14.80
2022-12-31T21:54:03.033Z,14.85
2022-12-31T21:59:24.184Z,14.92
2022-12-31T22:09:49.256Z,14.91
2022-12-31T22:15:15.612Z,14.68
2022-12-31T22:20:29.320Z,14.69
2022-12-31T22:25:35.362Z,14.86
2022-12-31T22:30:37.697Z,15.01
2022-12-31T22:35:40.052Z,14.76
2022-12-31T22:40:42.182Z,14.86
2022-12-31T22:45:44.426Z,15.02
2022-12-31T22:50:56.410Z,15.06
2022-12-31T22:55:58.749Z,15.19
2022-12-31T23:01:03.687Z,15.11
2022-12-31T23:06:05.946Z,15.07
2022-12-31T23:11:11.387Z,14.77
2022-12-31T23:16:32.192Z,14.82
2022-12-31T23:21:53.145Z,15.08
2022-12-31T23:26:59.076Z,15.23
2022-12-31T23:32:01.251Z,14.83
2022-12-31T23:37:04.359Z,15.23
2022-12-31T23:42:06.605Z,14.79
2022-12-31T23:47:08.907Z,15.18
2022-12-31T23:52:11.282Z,14.71
2022-12-31T23:57:13.438Z,15.29
